createdAt,value
2022-08-17T00:01:51.000Z,1003.2
2022-08-17T00:03:07.000Z,1003.2
2022-08-17T00:04:23.000Z,1003.1
2022-08-17T00:05:40.000Z,1003.1
2022-08-17T00:06:56.000Z,1003.1
2022-08-17T00:08:12.000Z,1003
2022-08-17T00:09:28.000Z,1003.1
2022-08-17T00:10:45.000Z,1003
2022-08-17T00:12:00.000Z,1003
2022-08-17T00:14:33.000Z,1003
2022-08-17T00:15:48.000Z,1003
2022-08-17T00:18:20.000Z,1003
2022-08-17T00:19:36.000Z,1003
2022-08-17T00:20:52.000Z,1003
2022-08-17T00:22:08.000Z,1003
2022-08-17T00:23:25.000Z,1003
2022-08-17T00:24:41.000Z,1003
2022-08-17T00:25:57.000Z,1003
2022-08-17T00:27:14.000Z,1003
2022-08-17T00:28:30.000Z,1003
2022-08-17T00:31:02.000Z,1002.9
2022-08-17T00:32:19.000Z,1003
2022-08-17T00:33:34.000Z,1003
2022-08-17T00:34:50.000Z,1003
2022-08-17T00:37:23.000Z,1003
2022-08-17T00:38:39.000Z,1002.9
2022-08-17T00:39:55.000Z,1002.9
2022-08-17T00:41:12.000Z,1002.9
2022-08-17T00:42:28.000Z,1002.9
2022-08-17T00:43:44.000Z,1002.9
2022-08-17T00:45:01.000Z,1002.9
2022-08-17T00:46:17.000Z,1002.9
2022-08-17T00:47:33.000Z,1002.9
2022-08-17T00:48:49.000Z,1002.8
2022-08-17T00:50:05.000Z,1002.9
2022-08-17T00:51:21.000Z,1002.8
2022-08-17T00:52:37.000Z,1002.9
2022-08-17T00:53:54.000Z,1002.8
2022-08-17T00:55:10.000Z,1002.9
2022-08-17T00:57:42.000Z,1002.8
2022-08-17T00:58:59.000Z,1002.9
2022-08-17T01:00:15.000Z,1002.8
2022-08-17T01:01:31.000Z,1002.8
2022-08-17T01:02:48.000Z,1002.8
2022-08-17T01:04:03.000Z,1002.9
2022-08-17T01:05:18.000Z,1002.9
2022-08-17T01:06:34.000Z,1002.8
2022-08-17T01:07:51.000Z,1002.8
2022-08-17T01:09:07.000Z,1002.8
2022-08-17T01:10:23.000Z,1002.8
2022-08-17T01:11:40.000Z,1002.9
2022-08-17T01:12:56.000Z,1002.9
2022-08-17T01:14:12.000Z,1002.9
2022-08-17T01:15:28.000Z,1002.9
2022-08-17T01:16:45.000Z,1002.9
2022-08-17T01:18:00.000Z,1002.9
2022-08-17T01:19:15.000Z,1002.9
2022-08-17T01:21:48.000Z,1002.9
2022-08-17T01:23:04.000Z,1002.9
2022-08-17T01:24:21.000Z,1002.9
2022-08-17T01:25:37.000Z,1002.9
2022-08-17T01:26:53.000Z,1002.9
2022-08-17T01:28:09.000Z,1002.9
2022-08-17T01:29:26.000Z,1002.9
2022-08-17T01:30:42.000Z,1002.9
2022-08-17T01:31:58.000Z,1002.9
2022-08-17T01:33:15.000Z,1002.8
2022-08-17T01:34:31.000Z,1002.8
2022-08-17T01:35:46.000Z,1002.9
2022-08-17T01:37:02.000Z,1002.8
2022-08-17T01:38:19.000Z,1002.8
2022-08-17T01:39:35.000Z,1002.8
2022-08-17T01:40:51.000Z,1002.9
2022-08-17T01:42:08.000Z,1002.8
2022-08-17T01:43:24.000Z,1002.8
2022-08-17T01:47:12.000Z,1002.8
2022-08-17T01:48:27.000Z,1002.7
2022-08-17T01:49:43.000Z,1002.7
2022-08-17T01:50:59.000Z,1002.8
2022-08-17T01:52:15.000Z,1002.7
2022-08-17T01:53:31.000Z,1002.8
2022-08-17T01:54:48.000Z,1002.8
2022-08-17T01:56:04.000Z,1002.8
2022-08-17T01:57:20.000Z,1002.8
2022-08-17T01:59:53.000Z,1002.8
2022-08-17T02:01:09.000Z,1002.8
2022-08-17T02:02:25.000Z,1002.7
2022-08-17T02:03:42.000Z,1002.7
2022-08-17T02:04:58.000Z,1002.7
2022-08-17T02:06:14.000Z,1002.7
2022-08-17T02:07:30.000Z,1002.7
2022-08-17T02:08:46.000Z,1002.7
2022-08-17T02:10:02.000Z,1002.7
2022-08-17T02:12:35.000Z,1002.7
2022-08-17T02:13:50.000Z,1002.8
2022-08-17T02:15:05.000Z,1002.7
2022-08-17T02:16:21.000Z,1002.7
2022-08-17T02:17:38.000Z,1002.7
2022-08-17T02:18:54.000Z,1002.7
2022-08-17T02:20:10.000Z,1002.7
2022-08-17T02:22:43.000Z,1002.7
2022-08-17T02:23:59.000Z,1002.7
2022-08-17T02:25:15.000Z,1002.7
2022-08-17T02:26:32.000Z,1002.7
2022-08-17T02:27:48.000Z,1002.6
2022-08-17T02:29:04.000Z,1002.7
2022-08-17T02:30:21.000Z,1002.6
2022-08-17T02:31:36.000Z,1002.6
2022-08-17T02:32:52.000Z,1002.6
2022-08-17T02:34:08.000Z,1002.6
2022-08-17T02:35:25.000Z,1002.6
2022-08-17T02:36:41.000Z,1002.6
2022-08-17T02:37:57.000Z,1002.6
2022-08-17T02:39:14.000Z,1002.6
2022-08-17T02:40:30.000Z,1002.6
2022-08-17T02:41:45.000Z,1002.6
2022-08-17T02:44:17.000Z,1002.6
2022-08-17T02:45:33.000Z,1002.6
2022-08-17T02:46:49.000Z,1002.6
2022-08-17T02:50:38.000Z,1002.7
2022-08-17T02:51:55.000Z,1002.7
2022-08-17T02:53:11.000Z,1002.7
2022-08-17T02:54:27.000Z,1002.7
2022-08-17T02:55:43.000Z,1002.6
2022-08-17T02:58:16.000Z,1002.6
2022-08-17T02:59:31.000Z,1002.7
2022-08-17T03:00:47.000Z,1002.7
2022-08-17T03:02:02.000Z,1002.7
2022-08-17T03:03:18.000Z,1002.7
2022-08-17T03:04:34.000Z,1002.7
2022-08-17T03:05:51.000Z,1002.7
2022-08-17T03:07:07.000Z,1002.7
2022-08-17T03:08:23.000Z,1002.7
2022-08-17T03:09:40.000Z,1002.7
2022-08-17T03:10:56.000Z,1002.7
2022-08-17T03:12:12.000Z,1002.6
2022-08-17T03:13:29.000Z,1002.7
2022-08-17T03:14:45.000Z,1002.7
2022-08-17T03:16:00.000Z,1002.6
2022-08-17T03:17:15.000Z,1002.7
2022-08-17T03:18:32.000Z,1002.6
2022-08-17T03:19:48.000Z,1002.6
2022-08-17T03:21:04.000Z,1002.6
2022-08-17T03:22:21.000Z,1002.6
2022-08-17T03:23:37.000Z,1002.6
2022-08-17T03:24:53.000Z,1002.6
2022-08-17T03:26:09.000Z,1002.6
2022-08-17T03:28:42.000Z,1002.6
2022-08-17T03:29:58.000Z,1002.6
2022-08-17T03:31:15.000Z,1002.5
2022-08-17T03:32:31.000Z,1002.5
2022-08-17T03:33:46.000Z,1002.5
2022-08-17T03:35:02.000Z,1002.5
2022-08-17T03:36:19.000Z,1002.6
2022-08-17T03:37:35.000Z,1002.5
2022-08-17T03:38:51.000Z,1002.6
2022-08-17T03:40:08.000Z,1002.6
2022-08-17T03:41:24.000Z,1002.6
2022-08-17T03:42:40.000Z,1002.7
2022-08-17T03:43:55.000Z,1002.6
2022-08-17T03:45:11.000Z,1002.7
2022-08-17T03:46:27.000Z,1002.7
2022-08-17T03:47:43.000Z,1002.6
2022-08-17T03:48:59.000Z,1002.6
2022-08-17T03:50:16.000Z,1002.6
2022-08-17T03:54:04.000Z,1002.6
2022-08-17T03:55:21.000Z,1002.6
2022-08-17T03:56:37.000Z,1002.6
2022-08-17T03:57:53.000Z,1002.6
2022-08-17T03:59:09.000Z,1002.7
2022-08-17T04:00:25.000Z,1002.7
2022-08-17T04:01:40.000Z,1002.7
2022-08-17T04:02:56.000Z,1002.7
2022-08-17T04:05:28.000Z,1002.7
2022-08-17T04:06:45.000Z,1002.7
2022-08-17T04:08:01.000Z,1002.7
2022-08-17T04:09:17.000Z,1002.7
2022-08-17T04:10:33.000Z,1002.7
2022-08-17T04:11:50.000Z,1002.7
2022-08-17T04:14:22.000Z,1002.7
2022-08-17T04:15:38.000Z,1002.7
2022-08-17T04:18:10.000Z,1002.7
2022-08-17T04:19:25.000Z,1002.7
2022-08-17T04:20:40.000Z,1002.7
2022-08-17T04:21:57.000Z,1002.7
2022-08-17T04:23:13.000Z,1002.7
2022-08-17T04:24:29.000Z,1002.7
2022-08-17T04:25:45.000Z,1002.7
2022-08-17T04:27:02.000Z,1002.7
2022-08-17T04:28:18.000Z,1002.7
2022-08-17T04:29:34.000Z,1002.7
2022-08-17T04:32:06.000Z,1002.7
2022-08-17T04:33:23.000Z,1002.8
2022-08-17T04:34:39.000Z,1002.8
2022-08-17T04:35:55.000Z,1002.8
2022-08-17T04:37:10.000Z,1002.9
2022-08-17T04:38:27.000Z,1002.8
2022-08-17T04:39:43.000Z,1002.9
2022-08-17T04:40:59.000Z,1002.9
2022-08-17T04:42:15.000Z,1002.9
2022-08-17T04:44:48.000Z,1003
2022-08-17T04:46:04.000Z,1003
2022-08-17T04:47:20.000Z,1003
2022-08-17T04:48:36.000Z,1002.9
2022-08-17T04:49:53.000Z,1003
2022-08-17T04:51:09.000Z,1003
2022-08-17T04:52:25.000Z,1003
2022-08-17T04:53:40.000Z,1003
2022-08-17T04:54:57.000Z,1003
2022-08-17T04:57:29.000Z,1003
2022-08-17T04:58:45.000Z,1003
2022-08-17T05:00:02.000Z,1003
2022-08-17T05:01:18.000Z,1003
2022-08-17T05:02:34.000Z,1003
2022-08-17T05:03:50.000Z,1003.1
2022-08-17T05:05:07.000Z,1003
2022-08-17T05:06:23.000Z,1003.1
2022-08-17T05:07:39.000Z,1003.1
2022-08-17T05:08:55.000Z,1003.1
2022-08-17T05:10:10.000Z,1003.1
2022-08-17T05:11:26.000Z,1003.1
2022-08-17T05:12:41.000Z,1003.1
2022-08-17T05:13:57.000Z,1003.1
2022-08-17T05:15:13.000Z,1003.2
2022-08-17T05:16:30.000Z,1003.2
2022-08-17T05:17:46.000Z,1003.2
2022-08-17T05:19:02.000Z,1003.2
2022-08-17T05:20:18.000Z,1003.2
2022-08-17T05:22:51.000Z,1003.2
2022-08-17T05:24:07.000Z,1003.3
2022-08-17T05:25:23.000Z,1003.3
2022-08-17T05:26:40.000Z,1003.3
2022-08-17T05:27:56.000Z,1003.3
2022-08-17T05:29:11.000Z,1003.3
2022-08-17T05:30:27.000Z,1003.3
2022-08-17T05:31:44.000Z,1003.3
2022-08-17T05:33:00.000Z,1003.2
2022-08-17T05:36:48.000Z,1003.2
2022-08-17T05:38:04.000Z,1003.2
2022-08-17T05:39:19.000Z,1003.2
2022-08-17T05:40:35.000Z,1003.2
2022-08-17T05:41:51.000Z,1003.2
2022-08-17T05:43:08.000Z,1003.2
2022-08-17T05:44:24.000Z,1003.2
2022-08-17T05:45:40.000Z,1003.2
2022-08-17T05:48:13.000Z,1003.2
2022-08-17T05:49:29.000Z,1003.2
2022-08-17T05:50:45.000Z,1003.2
2022-08-17T05:52:01.000Z,1003.2
2022-08-17T05:53:18.000Z,1003.3
2022-08-17T05:54:34.000Z,1003.2
2022-08-17T05:55:49.000Z,1003.2
2022-08-17T05:57:05.000Z,1003.2
2022-08-17T05:58:21.000Z,1003.2
2022-08-17T05:59:38.000Z,1003.1
2022-08-17T06:00:54.000Z,1003.1
2022-08-17T06:02:10.000Z,1003.1
2022-08-17T06:03:25.000Z,1003.1
2022-08-17T06:04:42.000Z,1003.1
2022-08-17T06:05:57.000Z,1003.1
2022-08-17T06:07:12.000Z,1003.1
2022-08-17T06:08:28.000Z,1003
2022-08-17T06:09:45.000Z,1003.1
2022-08-17T06:11:01.000Z,1003.1
2022-08-17T06:13:33.000Z,1003
2022-08-17T06:14:50.000Z,1003
2022-08-17T06:16:06.000Z,1003
2022-08-17T06:17:22.000Z,1003
2022-08-17T06:18:38.000Z,1003
2022-08-17T06:19:54.000Z,1002.9
2022-08-17T06:21:11.000Z,1002.9
2022-08-17T06:22:27.000Z,1002.9
2022-08-17T06:23:42.000Z,1002.9
2022-08-17T06:24:58.000Z,1002.9
2022-08-17T06:26:15.000Z,1002.9
2022-08-17T06:27:31.000Z,1002.9
2022-08-17T06:28:47.000Z,1002.9
2022-08-17T06:30:03.000Z,1002.9
2022-08-17T06:31:20.000Z,1002.9
2022-08-17T06:32:36.000Z,1002.9
2022-08-17T06:33:51.000Z,1002.9
2022-08-17T06:35:06.000Z,1002.9
2022-08-17T06:36:23.000Z,1002.9
2022-08-17T06:38:55.000Z,1002.9
2022-08-17T06:40:11.000Z,1003
2022-08-17T06:41:28.000Z,1002.9
2022-08-17T06:42:44.000Z,1002.9
2022-08-17T06:44:00.000Z,1003
2022-08-17T06:45:16.000Z,1002.9
2022-08-17T06:46:32.000Z,1002.9
2022-08-17T06:47:49.000Z,1002.9
2022-08-17T06:49:05.000Z,1003
2022-08-17T06:50:21.000Z,1002.9
2022-08-17T06:51:36.000Z,1003
2022-08-17T06:52:53.000Z,1002.9
2022-08-17T06:54:09.000Z,1003
2022-08-17T06:55:25.000Z,1003
2022-08-17T06:56:41.000Z,1002.9
2022-08-17T06:57:58.000Z,1002.9
2022-08-17T06:59:14.000Z,1002.9
2022-08-17T07:00:30.000Z,1002.9
2022-08-17T07:01:46.000Z,1002.9
2022-08-17T07:03:02.000Z,1002.9
2022-08-17T07:04:19.000Z,1002.9
2022-08-17T07:05:35.000Z,1002.9
2022-08-17T07:06:51.000Z,1002.9
2022-08-17T07:09:24.000Z,1002.9
2022-08-17T07:10:39.000Z,1003
2022-08-17T07:11:55.000Z,1002.9
2022-08-17T07:13:11.000Z,1002.9
2022-08-17T07:14:28.000Z,1002.9
2022-08-17T07:17:00.000Z,1003
2022-08-17T07:18:16.000Z,1003
2022-08-17T07:19:33.000Z,1003
2022-08-17T07:20:49.000Z,1003
2022-08-17T07:22:05.000Z,1003
2022-08-17T07:23:21.000Z,1003
2022-08-17T07:24:37.000Z,1003
2022-08-17T07:25:54.000Z,1003
2022-08-17T07:27:09.000Z,1003
2022-08-17T07:28:25.000Z,1003
2022-08-17T07:29:41.000Z,1003
2022-08-17T07:30:58.000Z,1003
2022-08-17T07:32:14.000Z,1003
2022-08-17T07:33:30.000Z,1003
2022-08-17T07:34:46.000Z,1003
2022-08-17T07:36:03.000Z,1003
2022-08-17T07:37:19.000Z,1002.9
2022-08-17T07:38:35.000Z,1003
2022-08-17T07:39:51.000Z,1003
2022-08-17T07:42:24.000Z,1003
2022-08-17T07:43:39.000Z,1003
2022-08-17T07:44:55.000Z,1003
2022-08-17T07:46:11.000Z,1003
2022-08-17T07:47:28.000Z,1003
2022-08-17T07:48:44.000Z,1003
2022-08-17T07:50:00.000Z,1003
2022-08-17T07:51:16.000Z,1003
2022-08-17T07:52:33.000Z,1003.1
2022-08-17T07:53:49.000Z,1003.1
2022-08-17T07:55:05.000Z,1003.1
2022-08-17T07:56:21.000Z,1003.1
2022-08-17T07:57:38.000Z,1003.1
2022-08-17T07:58:54.000Z,1003.1
2022-08-17T08:00:09.000Z,1003.1
2022-08-17T08:01:25.000Z,1003.1
2022-08-17T08:02:41.000Z,1003.1
2022-08-17T08:03:58.000Z,1003.1
2022-08-17T08:05:14.000Z,1003.1
2022-08-17T08:07:46.000Z,1003.1
2022-08-17T08:09:03.000Z,1003.1
2022-08-17T08:14:08.000Z,1003.1
2022-08-17T08:15:23.000Z,1003.1
2022-08-17T08:16:38.000Z,1003.1
2022-08-17T08:17:54.000Z,1003.1
2022-08-17T08:19:11.000Z,1003.1
2022-08-17T08:20:27.000Z,1003.1
2022-08-17T08:21:43.000Z,1003.1
2022-08-17T08:24:16.000Z,1003.1
2022-08-17T08:25:32.000Z,1003.2
2022-08-17T08:26:48.000Z,1003.2
2022-08-17T08:28:04.000Z,1003.2
2022-08-17T08:29:20.000Z,1003.2
2022-08-17T08:30:37.000Z,1003.2
2022-08-17T08:31:53.000Z,1003.2
2022-08-17T08:33:08.000Z,1003.2
2022-08-17T08:34:24.000Z,1003.2
2022-08-17T08:35:41.000Z,1003.2
2022-08-17T08:36:57.000Z,1003.2
2022-08-17T08:38:13.000Z,1003.2
2022-08-17T08:39:29.000Z,1003.2
2022-08-17T08:40:46.000Z,1003.1
2022-08-17T08:42:02.000Z,1003.1
2022-08-17T08:43:17.000Z,1003.1
2022-08-17T08:45:49.000Z,1003.2
2022-08-17T08:47:05.000Z,1003.2
2022-08-17T08:48:21.000Z,1003.2
2022-08-17T08:49:37.000Z,1003.1
2022-08-17T08:50:53.000Z,1003.1
2022-08-17T08:52:10.000Z,1003.2
2022-08-17T08:53:26.000Z,1003.2
2022-08-17T08:55:58.000Z,1003.1
2022-08-17T08:57:15.000Z,1003.1
2022-08-17T08:58:31.000Z,1003.1
2022-08-17T08:59:47.000Z,1003.1
2022-08-17T09:01:02.000Z,1003.1
2022-08-17T09:02:19.000Z,1003.1
2022-08-17T09:03:35.000Z,1003.1
2022-08-17T09:04:51.000Z,1003.1
2022-08-17T09:06:07.000Z,1003
2022-08-17T09:07:24.000Z,1003
2022-08-17T09:08:40.000Z,1003
2022-08-17T09:09:56.000Z,1003
2022-08-17T09:11:12.000Z,1003
2022-08-17T09:12:28.000Z,1003
2022-08-17T09:13:45.000Z,1003
2022-08-17T09:15:01.000Z,1003
2022-08-17T09:16:17.000Z,1003
2022-08-17T09:17:32.000Z,1003
2022-08-17T09:18:49.000Z,1002.9
2022-08-17T09:20:05.000Z,1003
2022-08-17T09:21:21.000Z,1003
2022-08-17T09:22:37.000Z,1003
2022-08-17T09:23:54.000Z,1003
2022-08-17T09:25:10.000Z,1003
2022-08-17T09:26:26.000Z,1003
2022-08-17T09:27:42.000Z,1003
2022-08-17T09:28:58.000Z,1002.9
2022-08-17T09:30:15.000Z,1003
2022-08-17T09:31:31.000Z,1003
2022-08-17T09:32:47.000Z,1003
2022-08-17T09:34:03.000Z,1003.1
2022-08-17T09:36:35.000Z,1003.1
2022-08-17T09:37:51.000Z,1003.1
2022-08-17T09:39:07.000Z,1003.1
2022-08-17T09:40:24.000Z,1003.1
2022-08-17T09:41:40.000Z,1003
2022-08-17T09:42:56.000Z,1002.9
2022-08-17T09:44:12.000Z,1003
2022-08-17T09:45:29.000Z,1003
2022-08-17T09:46:45.000Z,1003
2022-08-17T09:48:01.000Z,1003
2022-08-17T09:49:17.000Z,1003
2022-08-17T09:50:33.000Z,1003.1
2022-08-17T09:51:49.000Z,1003.1
2022-08-17T09:53:05.000Z,1003.1
2022-08-17T09:54:21.000Z,1003.1
2022-08-17T09:55:37.000Z,1003
2022-08-17T09:56:54.000Z,1003.1
2022-08-17T09:58:10.000Z,1003
2022-08-17T09:59:26.000Z,1002.9
2022-08-17T10:00:42.000Z,1003
2022-08-17T10:01:59.000Z,1003
2022-08-17T10:03:15.000Z,1003
2022-08-17T10:04:31.000Z,1003
2022-08-17T10:05:47.000Z,1003
2022-08-17T10:07:04.000Z,1002.9
2022-08-17T10:08:19.000Z,1002.9
2022-08-17T10:09:35.000Z,1002.9
2022-08-17T10:10:51.000Z,1002.9
2022-08-17T10:12:07.000Z,1002.9
2022-08-17T10:13:24.000Z,1002.9
2022-08-17T10:14:40.000Z,1002.9
2022-08-17T10:15:56.000Z,1002.9
2022-08-17T10:17:12.000Z,1002.9
2022-08-17T10:18:28.000Z,1002.9
2022-08-17T10:19:44.000Z,1002.9
2022-08-17T10:21:00.000Z,1002.9
2022-08-17T10:22:16.000Z,1002.9
2022-08-17T10:23:33.000Z,1002.9
2022-08-17T10:24:49.000Z,1002.9
2022-08-17T10:26:05.000Z,1002.9
2022-08-17T10:27:21.000Z,1002.8
2022-08-17T10:28:38.000Z,1002.8
2022-08-17T10:29:54.000Z,1002.8
2022-08-17T10:31:10.000Z,1002.8
2022-08-17T10:32:26.000Z,1002.8
2022-08-17T10:33:42.000Z,1002.8
2022-08-17T10:34:58.000Z,1002.8
2022-08-17T10:36:14.000Z,1002.8
2022-08-17T10:37:30.000Z,1002.8
2022-08-17T10:38:46.000Z,1002.8
2022-08-17T10:40:03.000Z,1002.8
2022-08-17T10:41:19.000Z,1002.8
2022-08-17T10:42:35.000Z,1002.8
2022-08-17T10:43:51.000Z,1002.8
2022-08-17T10:45:08.000Z,1002.8
2022-08-17T10:46:24.000Z,1002.8
2022-08-17T10:47:40.000Z,1002.8
2022-08-17T10:48:56.000Z,1002.8
2022-08-17T10:50:13.000Z,1002.8
2022-08-17T10:52:44.000Z,1002.8
2022-08-17T10:54:00.000Z,1002.8
2022-08-17T10:55:16.000Z,1002.8
2022-08-17T10:56:33.000Z,1002.7
2022-08-17T10:57:49.000Z,1002.7
2022-08-17T10:59:05.000Z,1002.8
2022-08-17T11:00:21.000Z,1002.8
2022-08-17T11:01:38.000Z,1002.8
2022-08-17T11:02:54.000Z,1002.8
2022-08-17T11:05:26.000Z,1002.8
2022-08-17T11:06:43.000Z,1002.8
2022-08-17T11:07:58.000Z,1002.7
2022-08-17T11:09:14.000Z,1002.8
2022-08-17T11:10:30.000Z,1002.8
2022-08-17T11:11:46.000Z,1002.8
2022-08-17T11:13:03.000Z,1002.8
2022-08-17T11:14:19.000Z,1002.8
2022-08-17T11:15:35.000Z,1002.8
2022-08-17T11:16:51.000Z,1002.8
2022-08-17T11:18:08.000Z,1002.8
2022-08-17T11:19:24.000Z,1002.8
2022-08-17T11:20:40.000Z,1002.8
2022-08-17T11:21:56.000Z,1002.9
2022-08-17T11:23:13.000Z,1002.8
2022-08-17T11:24:28.000Z,1002.8
2022-08-17T11:25:44.000Z,1002.8
2022-08-17T11:27:00.000Z,1002.8
2022-08-17T11:28:17.000Z,1002.8
2022-08-17T11:30:49.000Z,1002.8
2022-08-17T11:32:05.000Z,1002.9
2022-08-17T11:33:21.000Z,1002.9
2022-08-17T11:34:38.000Z,1002.9
2022-08-17T11:37:10.000Z,1002.9
2022-08-17T11:38:26.000Z,1002.9
2022-08-17T11:39:43.000Z,1002.9
2022-08-17T11:40:58.000Z,1002.8
2022-08-17T11:42:14.000Z,1002.9
2022-08-17T11:43:30.000Z,1002.9
2022-08-17T11:44:47.000Z,1002.8
2022-08-17T11:46:03.000Z,1002.8
2022-08-17T11:47:19.000Z,1002.8
2022-08-17T11:48:35.000Z,1002.9
2022-08-17T11:49:52.000Z,1002.9
2022-08-17T11:51:08.000Z,1002.8
2022-08-17T11:52:24.000Z,1002.9
2022-08-17T11:53:40.000Z,1002.9
2022-08-17T11:56:13.000Z,1002.9
2022-08-17T11:57:28.000Z,1002.9
2022-08-17T11:58:43.000Z,1002.9
2022-08-17T11:59:59.000Z,1002.9
2022-08-17T12:01:16.000Z,1002.9
2022-08-17T12:02:32.000Z,1002.9
2022-08-17T12:03:48.000Z,1002.9
2022-08-17T12:05:04.000Z,1003
2022-08-17T12:06:21.000Z,1003
2022-08-17T12:07:37.000Z,1003
2022-08-17T12:08:53.000Z,1003
2022-08-17T12:10:09.000Z,1003.1
2022-08-17T12:11:25.000Z,1003.1
2022-08-17T12:12:40.000Z,1003.1
2022-08-17T12:13:56.000Z,1003.2
2022-08-17T12:15:12.000Z,1003.3
2022-08-17T12:16:29.000Z,1003.3
2022-08-17T12:17:45.000Z,1003.4
2022-08-17T12:20:17.000Z,1003.3
2022-08-17T12:21:33.000Z,1003.3
2022-08-17T12:22:50.000Z,1003.3
2022-08-17T12:24:06.000Z,1003.2
2022-08-17T12:25:22.000Z,1003.3
2022-08-17T12:26:38.000Z,1003.3
2022-08-17T12:27:55.000Z,1003.3
2022-08-17T12:29:10.000Z,1003.2
2022-08-17T12:30:26.000Z,1003.2
2022-08-17T12:31:42.000Z,1003.2
2022-08-17T12:34:15.000Z,1003.2
2022-08-17T12:35:30.000Z,1003.2
2022-08-17T12:38:03.000Z,1003.2
2022-08-17T12:39:18.000Z,1003.2
2022-08-17T12:40:34.000Z,1003.2
2022-08-17T12:41:50.000Z,1003.2
2022-08-17T12:43:06.000Z,1003.3
2022-08-17T12:44:23.000Z,1003.2
2022-08-17T12:45:39.000Z,1003.2
2022-08-17T12:46:55.000Z,1003.2
2022-08-17T12:48:11.000Z,1003.2
2022-08-17T12:49:28.000Z,1003.1
2022-08-17T12:50:43.000Z,1003.2
2022-08-17T12:51:58.000Z,1003.2
2022-08-17T12:53:14.000Z,1003.1
2022-08-17T12:54:31.000Z,1003.1
2022-08-17T12:55:47.000Z,1003.1
2022-08-17T12:57:03.000Z,1003.2
2022-08-17T12:58:19.000Z,1003.2
2022-08-17T12:59:36.000Z,1003.1
2022-08-17T13:00:52.000Z,1003.2
2022-08-17T13:02:08.000Z,1003.1
2022-08-17T13:03:24.000Z,1003.1
2022-08-17T13:04:40.000Z,1003.1
2022-08-17T13:05:57.000Z,1003.2
2022-08-17T13:07:13.000Z,1003.2
2022-08-17T13:08:28.000Z,1003.2
2022-08-17T13:09:44.000Z,1003.2
2022-08-17T13:12:17.000Z,1003.2
2022-08-17T13:13:33.000Z,1003.2
2022-08-17T13:14:49.000Z,1003.2
2022-08-17T13:16:06.000Z,1003.2
2022-08-17T13:17:22.000Z,1003.2
2022-08-17T13:18:38.000Z,1003.2
2022-08-17T13:19:54.000Z,1003.3
2022-08-17T13:21:11.000Z,1003.3
2022-08-17T13:22:27.000Z,1003.3
2022-08-17T13:23:43.000Z,1003.3
2022-08-17T13:24:58.000Z,1003.2
2022-08-17T13:26:14.000Z,1003.2
2022-08-17T13:27:31.000Z,1003.2
2022-08-17T13:28:47.000Z,1003.2
2022-08-17T13:30:03.000Z,1003.2
2022-08-17T13:31:19.000Z,1003.1
2022-08-17T13:32:36.000Z,1003.1
2022-08-17T13:33:52.000Z,1003.1
2022-08-17T13:35:08.000Z,1003.1
2022-08-17T13:36:24.000Z,1003.1
2022-08-17T13:37:41.000Z,1003.1
2022-08-17T13:38:57.000Z,1003.1
2022-08-17T13:40:13.000Z,1003
2022-08-17T13:41:28.000Z,1003
2022-08-17T13:42:45.000Z,1003
2022-08-17T13:44:01.000Z,1003
2022-08-17T13:46:33.000Z,1002.9
2022-08-17T13:49:06.000Z,1002.9
2022-08-17T13:50:22.000Z,1002.9
2022-08-17T13:51:38.000Z,1002.9
2022-08-17T13:52:54.000Z,1002.8
2022-08-17T13:54:11.000Z,1002.8
2022-08-17T13:55:27.000Z,1002.8
2022-08-17T13:56:43.000Z,1002.8
2022-08-17T13:57:58.000Z,1002.7
2022-08-17T13:59:15.000Z,1002.7
2022-08-17T14:00:31.000Z,1002.6
2022-08-17T14:03:03.000Z,1002.6
2022-08-17T14:04:19.000Z,1002.5
2022-08-17T14:05:34.000Z,1002.5
2022-08-17T14:06:50.000Z,1002.5
2022-08-17T14:08:06.000Z,1002.5
2022-08-17T14:09:22.000Z,1002.4
2022-08-17T14:10:39.000Z,1002.4
2022-08-17T14:13:11.000Z,1002.4
2022-08-17T14:14:27.000Z,1002.4
2022-08-17T14:15:44.000Z,1002.4
2022-08-17T14:17:00.000Z,1002.5
2022-08-17T14:18:16.000Z,1002.5
2022-08-17T14:19:32.000Z,1002.5
2022-08-17T14:20:49.000Z,1002.4
2022-08-17T14:22:05.000Z,1002.5
2022-08-17T14:23:20.000Z,1002.5
2022-08-17T14:24:36.000Z,1002.5
2022-08-17T14:25:53.000Z,1002.5
2022-08-17T14:28:25.000Z,1002.4
2022-08-17T14:29:40.000Z,1002.4
2022-08-17T14:30:56.000Z,1002.4
2022-08-17T14:32:12.000Z,1002.4
2022-08-17T14:34:43.000Z,1002.4
2022-08-17T14:35:58.000Z,1002.4
2022-08-17T14:37:15.000Z,1002.4
2022-08-17T14:38:31.000Z,1002.4
2022-08-17T14:39:47.000Z,1002.3
2022-08-17T14:41:03.000Z,1002.4
2022-08-17T14:42:20.000Z,1002.4
2022-08-17T14:43:36.000Z,1002.4
2022-08-17T14:44:52.000Z,1002.4
2022-08-17T14:46:08.000Z,1002.4
2022-08-17T14:47:25.000Z,1002.4
2022-08-17T14:48:41.000Z,1002.4
2022-08-17T14:49:57.000Z,1002.3
2022-08-17T14:51:13.000Z,1002.4
2022-08-17T14:52:29.000Z,1002.4
2022-08-17T14:53:45.000Z,1002.4
2022-08-17T14:55:01.000Z,1002.3
2022-08-17T14:56:17.000Z,1002.3
2022-08-17T14:57:32.000Z,1002.3
2022-08-17T14:58:48.000Z,1002.3
2022-08-17T15:00:04.000Z,1002.3
2022-08-17T15:01:20.000Z,1002.2
2022-08-17T15:02:36.000Z,1002.3
2022-08-17T15:03:53.000Z,1002.3
2022-08-17T15:05:09.000Z,1002.3
2022-08-17T15:06:25.000Z,1002.3
2022-08-17T15:07:41.000Z,1002.3
2022-08-17T15:08:58.000Z,1002.2
2022-08-17T15:10:14.000Z,1002.2
2022-08-17T15:11:29.000Z,1002.2
2022-08-17T15:12:44.000Z,1002.1
2022-08-17T15:15:17.000Z,1002.2
2022-08-17T15:16:33.000Z,1002.2
2022-08-17T15:19:06.000Z,1002.2
2022-08-17T15:21:38.000Z,1002.2
2022-08-17T15:22:54.000Z,1002.3
2022-08-17T15:24:10.000Z,1002.2
2022-08-17T15:25:27.000Z,1002.2
2022-08-17T15:26:43.000Z,1002.3
2022-08-17T15:27:59.000Z,1002.3
2022-08-17T15:30:31.000Z,1002.4
2022-08-17T15:31:47.000Z,1002.3
2022-08-17T15:33:03.000Z,1002.3
2022-08-17T15:34:18.000Z,1002.3
2022-08-17T15:35:34.000Z,1002.3
2022-08-17T15:36:50.000Z,1002.3
2022-08-17T15:38:06.000Z,1002.3
2022-08-17T15:39:22.000Z,1002.4
2022-08-17T15:40:39.000Z,1002.4
2022-08-17T15:41:55.000Z,1002.4
2022-08-17T15:43:11.000Z,1002.4
2022-08-17T15:44:27.000Z,1002.4
2022-08-17T15:45:43.000Z,1002.4
2022-08-17T15:47:00.000Z,1002.4
2022-08-17T15:48:15.000Z,1002.5
2022-08-17T15:49:30.000Z,1002.5
2022-08-17T15:50:46.000Z,1002.5
2022-08-17T15:52:03.000Z,1002.5
2022-08-17T15:53:19.000Z,1002.5
2022-08-17T15:54:35.000Z,1002.5
2022-08-17T15:57:08.000Z,1002.5
2022-08-17T15:58:24.000Z,1002.5
2022-08-17T15:59:40.000Z,1002.5
2022-08-17T16:00:56.000Z,1002.5
2022-08-17T16:02:13.000Z,1002.5
2022-08-17T16:03:29.000Z,1002.5
2022-08-17T16:04:45.000Z,1002.5
2022-08-17T16:06:00.000Z,1002.5
2022-08-17T16:08:33.000Z,1002.6
2022-08-17T16:09:48.000Z,1002.6
2022-08-17T16:11:03.000Z,1002.5
2022-08-17T16:12:19.000Z,1002.5
2022-08-17T16:13:36.000Z,1002.5
2022-08-17T16:14:52.000Z,1002.5
2022-08-17T16:16:08.000Z,1002.5
2022-08-17T16:17:24.000Z,1002.5
2022-08-17T16:18:41.000Z,1002.5
2022-08-17T16:19:57.000Z,1002.5
2022-08-17T16:21:13.000Z,1002.5
2022-08-17T16:22:29.000Z,1002.5
2022-08-17T16:23:45.000Z,1002.5
2022-08-17T16:25:00.000Z,1002.5
2022-08-17T16:26:16.000Z,1002.5
2022-08-17T16:27:32.000Z,1002.5
2022-08-17T16:28:49.000Z,1002.5
2022-08-17T16:30:05.000Z,1002.5
2022-08-17T16:31:21.000Z,1002.4
2022-08-17T16:32:37.000Z,1002.6
2022-08-17T16:35:10.000Z,1002.5
2022-08-17T16:36:26.000Z,1002.5
2022-08-17T16:37:42.000Z,1002.5
2022-08-17T16:38:58.000Z,1002.5
2022-08-17T16:40:15.000Z,1002.5
2022-08-17T16:41:30.000Z,1002.5
2022-08-17T16:42:46.000Z,1002.5
2022-08-17T16:44:02.000Z,1002.5
2022-08-17T16:45:19.000Z,1002.5
2022-08-17T16:47:51.000Z,1002.6
2022-08-17T16:49:06.000Z,1002.6
2022-08-17T16:50:22.000Z,1002.6
2022-08-17T16:51:38.000Z,1002.6
2022-08-17T16:52:54.000Z,1002.6
2022-08-17T16:54:10.000Z,1002.7
2022-08-17T16:55:27.000Z,1002.6
2022-08-17T16:56:43.000Z,1002.6
2022-08-17T17:00:31.000Z,1002.7
2022-08-17T17:01:48.000Z,1002.8
2022-08-17T17:04:20.000Z,1002.8
2022-08-17T17:05:36.000Z,1002.8
2022-08-17T17:06:52.000Z,1002.8
2022-08-17T17:08:07.000Z,1002.8
2022-08-17T17:09:23.000Z,1002.9
2022-08-17T17:13:12.000Z,1002.8
2022-08-17T17:14:28.000Z,1002.9
2022-08-17T17:15:44.000Z,1002.9
2022-08-17T17:17:01.000Z,1002.9
2022-08-17T17:18:17.000Z,1002.9
2022-08-17T17:19:33.000Z,1002.9
2022-08-17T17:20:49.000Z,1002.9
2022-08-17T17:22:05.000Z,1002.9
2022-08-17T17:23:22.000Z,1003
2022-08-17T17:25:53.000Z,1003
2022-08-17T17:27:09.000Z,1003
2022-08-17T17:28:26.000Z,1003